createdAt,value
2022-10-06T00:00:47.293Z,9.09
2022-10-06T00:03:14.574Z,9.26
2022-10-06T00:05:41.887Z,9.08
2022-10-06T00:08:10.241Z,8.79
2022-10-06T00:10:37.345Z,9.25
2022-10-06T00:13:03.957Z,9.11
2022-10-06T00:15:32.468Z,9.40
2022-10-06T00:17:59.716Z,9.47
2022-10-06T00:20:27.092Z,9.19
2022-10-06T00:22:54.575Z,8.93
2022-10-06T00:25:23.476Z,8.90
2022-10-06T00:27:52.313Z,9.01
2022-10-06T00:30:22.340Z,9.02
2022-10-06T00:32:58.517Z,9.01
2022-10-06T00:35:27.481Z,8.94
2022-10-06T00:37:54.586Z,8.89
2022-10-06T00:40:22.661Z,9.01
2022-10-06T00:42:53.432Z,9.04
2022-10-06T00:45:24.823Z,8.90
2022-10-06T00:47:52.647Z,9.29
2022-10-06T00:50:19.739Z,8.87
2022-10-06T00:52:46.894Z,8.94
2022-10-06T00:55:14.022Z,9.21
2022-10-06T00:57:41.802Z,8.95
2022-10-06T01:00:09.521Z,8.77
2022-10-06T01:02:44.650Z,9.01
2022-10-06T01:05:20.041Z,8.73
2022-10-06T01:07:46.728Z,9.21
2022-10-06T01:10:13.320Z,9.20
2022-10-06T01:12:40.183Z,9.12
2022-10-06T01:15:08.159Z,8.36
2022-10-06T01:17:39.161Z,8.76
2022-10-06T01:20:10.333Z,8.86
2022-10-06T01:22:46.635Z,8.91
2022-10-06T01:25:16.376Z,8.41
2022-10-06T01:27:47.828Z,8.51
2022-10-06T01:30:18.931Z,8.47
2022-10-06T01:32:45.845Z,9.00
2022-10-06T01:35:12.486Z,9.22
2022-10-06T01:37:39.101Z,8.79
2022-10-06T01:40:06.202Z,8.90
2022-10-06T01:42:32.859Z,8.57
2022-10-06T01:44:59.692Z,8.75
2022-10-06T01:47:26.308Z,8.80
2022-10-06T01:49:52.930Z,9.08
2022-10-06T01:52:20.467Z,8.62
2022-10-06T01:54:47.137Z,9.00
2022-10-06T01:57:13.758Z,8.52
2022-10-06T01:59:40.355Z,9.34
2022-10-06T02:02:06.991Z,9.02
2022-10-06T02:04:33.583Z,9.06
2022-10-06T02:07:00.179Z,8.53
2022-10-06T02:09:26.783Z,8.65
2022-10-06T02:11:53.471Z,8.56
2022-10-06T02:14:20.047Z,8.46
2022-10-06T02:16:46.638Z,8.36
2022-10-06T02:19:13.205Z,8.52
2022-10-06T02:21:39.920Z,8.28
2022-10-06T02:24:06.571Z,8.02
2022-10-06T02:26:33.264Z,7.50
2022-10-06T02:28:59.868Z,7.70
2022-10-06T02:31:26.608Z,7.86
2022-10-06T02:33:53.310Z,7.72
2022-10-06T02:36:20.076Z,7.37
2022-10-06T02:38:46.650Z,7.64
2022-10-06T02:41:13.449Z,7.56
2022-10-06T02:43:40.155Z,7.47
2022-10-06T02:46:10.994Z,7.74
2022-10-06T02:48:38.446Z,7.42
2022-10-06T02:51:08.567Z,7.73
2022-10-06T02:53:36.025Z,8.05
2022-10-06T02:56:06.077Z,7.95
2022-10-06T02:58:33.649Z,8.03
2022-10-06T03:01:11.021Z,7.78
2022-10-06T03:03:38.570Z,7.82
2022-10-06T03:06:12.826Z,8.30
2022-10-06T03:08:39.428Z,8.16
2022-10-06T03:11:06.097Z,8.45
2022-10-06T03:13:32.692Z,8.49
2022-10-06T03:15:59.526Z,8.75
2022-10-06T03:18:26.721Z,8.35
2022-10-06T03:20:53.582Z,7.97
2022-10-06T03:23:20.150Z,8.20
2022-10-06T03:25:55.400Z,7.78
2022-10-06T03:28:22.069Z,8.09
2022-10-06T03:30:49.708Z,8.57
2022-10-06T03:33:16.296Z,7.90
2022-10-06T03:35:42.900Z,7.69
2022-10-06T03:38:09.494Z,8.15
2022-10-06T03:40:36.151Z,8.20
2022-10-06T03:43:03.488Z,8.48
2022-10-06T03:45:30.192Z,8.54
2022-10-06T03:47:56.792Z,8.68
2022-10-06T03:50:23.485Z,8.18
2022-10-06T03:52:50.290Z,8.15
2022-10-06T03:55:17.030Z,8.32
2022-10-06T03:57:43.692Z,8.37
2022-10-06T04:00:11.029Z,8.57
2022-10-06T04:02:39.868Z,8.91
2022-10-06T04:05:07.080Z,8.61
2022-10-06T04:07:33.838Z,9.05
2022-10-06T04:10:00.470Z,8.71
2022-10-06T04:12:27.124Z,8.88
2022-10-06T04:14:57.903Z,8.67
2022-10-06T04:17:26.703Z,8.25
2022-10-06T04:19:53.383Z,8.38
2022-10-06T04:22:20.036Z,8.59
2022-10-06T04:24:46.880Z,9.06
2022-10-06T04:27:13.595Z,8.79
2022-10-06T04:29:40.286Z,8.45
2022-10-06T04:32:07.241Z,8.27
2022-10-06T04:34:33.928Z,8.11
2022-10-06T04:37:00.576Z,8.57
2022-10-06T04:39:27.218Z,7.94
2022-10-06T04:41:53.857Z,7.91
2022-10-06T04:44:20.459Z,8.45
2022-10-06T04:46:47.091Z,8.10
2022-10-06T04:49:19.611Z,8.08
2022-10-06T04:51:50.574Z,8.64
2022-10-06T04:54:18.054Z,8.23
2022-10-06T04:56:44.635Z,8.26
2022-10-06T04:59:11.213Z,8.45
2022-10-06T05:01:38.110Z,8.32
2022-10-06T05:04:08.095Z,8.39
2022-10-06T05:06:36.411Z,8.13
2022-10-06T05:09:14.043Z,7.67
2022-10-06T05:11:40.701Z,8.01
2022-10-06T05:14:07.638Z,7.82
2022-10-06T05:16:34.669Z,7.72
2022-10-06T05:19:01.579Z,7.94
2022-10-06T05:21:31.063Z,8.36
2022-10-06T05:23:58.630Z,8.03
2022-10-06T05:26:29.060Z,8.17
2022-10-06T05:28:55.933Z,7.77
2022-10-06T05:31:25.788Z,7.55
2022-10-06T05:33:52.879Z,7.36
2022-10-06T05:36:22.299Z,7.37
2022-10-06T05:38:49.066Z,7.16
2022-10-06T05:41:21.679Z,7.47
2022-10-06T05:43:48.525Z,7.20
2022-10-06T05:46:18.311Z,7.25
2022-10-06T05:48:48.644Z,6.94
2022-10-06T05:51:17.118Z,6.94
2022-10-06T05:53:44.055Z,7.24
2022-10-06T05:56:13.888Z,7.28
2022-10-06T05:58:46.286Z,7.02
2022-10-06T06:01:16.572Z,7.13
2022-10-06T06:03:48.175Z,7.03
2022-10-06T06:06:16.880Z,6.55
2022-10-06T06:08:44.536Z,6.76
2022-10-06T06:11:11.630Z,7.67
2022-10-06T06:13:39.741Z,8.80
2022-10-06T06:16:12.681Z,9.42
2022-10-06T06:18:39.379Z,7.78
2022-10-06T06:21:09.186Z,7.32
2022-10-06T06:23:42.520Z,7.32
2022-10-06T06:26:12.395Z,7.38
2022-10-06T06:28:39.358Z,7.15
2022-10-06T06:31:10.995Z,6.89
2022-10-06T06:33:40.258Z,7.16
2022-10-06T06:36:21.944Z,7.40
2022-10-06T06:38:51.535Z,7.72
2022-10-06T06:41:27.175Z,8.01
2022-10-06T06:43:54.300Z,7.65
2022-10-06T06:46:24.121Z,7.35
2022-10-06T06:48:55.829Z,7.55
2022-10-06T06:51:23.246Z,7.28
2022-10-06T06:53:52.185Z,7.21
2022-10-06T06:56:20.344Z,7.06
2022-10-06T06:58:47.244Z,7.43
2022-10-06T07:01:18.738Z,7.21
2022-10-06T07:03:57.619Z,7.51
2022-10-06T07:06:28.168Z,7.31
2022-10-06T07:08:57.746Z,7.76
2022-10-06T07:11:34.052Z,8.35
2022-10-06T07:14:03.833Z,8.08
2022-10-06T07:16:32.111Z,8.53
2022-10-06T07:18:58.893Z,10.61
2022-10-06T07:21:25.493Z,7.42
2022-10-06T07:23:52.226Z,7.31
2022-10-06T07:26:19.005Z,8.09
2022-10-06T07:28:45.627Z,8.13
2022-10-06T07:31:12.367Z,7.21
2022-10-06T07:33:39.016Z,8.02
2022-10-06T07:36:05.721Z,8.52
2022-10-06T07:38:32.364Z,8.23
2022-10-06T07:43:45.648Z,8.12
2022-10-06T07:46:12.541Z,8.41
2022-10-06T07:48:39.330Z,8.37
2022-10-06T07:51:19.253Z,8.52
2022-10-06T07:53:46.466Z,7.56
2022-10-06T07:56:13.091Z,7.49
2022-10-06T07:58:40.062Z,7.50
2022-10-06T08:01:12.392Z,7.76
2022-10-06T08:03:40.888Z,7.97
2022-10-06T08:06:08.636Z,7.96
2022-10-06T08:08:35.220Z,7.86
2022-10-06T08:11:02.901Z,7.92
2022-10-06T08:13:29.762Z,8.11
2022-10-06T08:16:03.097Z,7.82
2022-10-06T08:18:46.937Z,7.88
2022-10-06T08:21:17.186Z,8.33
2022-10-06T08:23:45.707Z,7.71
2022-10-06T08:26:14.262Z,7.47
2022-10-06T08:28:47.985Z,8.02
2022-10-06T08:31:15.596Z,8.58
2022-10-06T08:33:44.299Z,9.48
2022-10-06T08:36:16.741Z,9.51
2022-10-06T08:38:43.432Z,9.12
2022-10-06T08:41:25.360Z,9.59
2022-10-06T08:44:02.072Z,9.93
2022-10-06T08:46:39.342Z,8.90
2022-10-06T08:49:15.759Z,8.89
2022-10-06T08:51:54.526Z,8.63
2022-10-06T08:54:37.462Z,8.31
2022-10-06T08:57:27.918Z,9.58
2022-10-06T08:59:54.795Z,9.03
2022-10-06T09:02:31.689Z,8.61
2022-10-06T09:05:02.721Z,8.89
2022-10-06T09:08:09.534Z,8.30
2022-10-06T09:11:06.602Z,7.76
2022-10-06T09:13:50.874Z,8.43
2022-10-06T09:16:41.091Z,8.98
2022-10-06T09:19:08.981Z,8.26
2022-10-06T09:21:43.113Z,8.21
2022-10-06T09:24:16.615Z,7.74
2022-10-06T09:26:46.931Z,7.35
2022-10-06T09:29:14.038Z,7.21
2022-10-06T09:31:44.461Z,7.17
2022-10-06T09:34:17.988Z,6.74
2022-10-06T09:37:02.014Z,7.20
2022-10-06T09:39:34.670Z,6.94
2022-10-06T09:42:06.059Z,6.71
2022-10-06T09:45:00.542Z,6.59
2022-10-06T09:47:42.403Z,6.97
2022-10-06T09:50:08.973Z,6.79
2022-10-06T09:52:35.657Z,7.01
2022-10-06T09:55:12.729Z,6.29
2022-10-06T09:57:52.277Z,5.89
2022-10-06T10:00:25.942Z,6.24
2022-10-06T10:03:02.651Z,6.09
2022-10-06T10:05:32.695Z,6.44
2022-10-06T10:08:16.159Z,6.68
2022-10-06T10:10:42.781Z,6.34
2022-10-06T10:13:23.163Z,6.34
2022-10-06T10:16:00.526Z,6.53
2022-10-06T10:18:31.542Z,6.28
2022-10-06T10:21:01.362Z,6.24
2022-10-06T10:23:32.002Z,6.08
2022-10-06T10:26:19.192Z,6.24
2022-10-06T10:28:51.944Z,6.35
2022-10-06T10:31:45.063Z,6.22
2022-10-06T10:34:24.393Z,6.04
2022-10-06T10:37:14.826Z,6.09
2022-10-06T10:40:10.355Z,6.14
2022-10-06T10:42:43.368Z,6.21
2022-10-06T10:45:32.599Z,6.32
2022-10-06T10:48:01.291Z,6.37
2022-10-06T10:50:49.344Z,6.21
2022-10-06T10:53:42.599Z,6.24
2022-10-06T10:56:13.241Z,6.13
2022-10-06T10:58:42.982Z,6.05
2022-10-06T11:01:56.003Z,6.11
2022-10-06T11:04:22.688Z,6.45
2022-10-06T11:07:10.302Z,6.08
2022-10-06T11:09:42.914Z,6.24
2022-10-06T11:12:24.744Z,6.34
2022-10-06T11:15:05.333Z,6.12
2022-10-06T11:17:44.669Z,6.33
2022-10-06T11:20:38.846Z,6.41
2022-10-06T11:23:38.299Z,6.60
2022-10-06T11:26:13.419Z,6.34
2022-10-06T11:28:53.772Z,6.47
2022-10-06T11:31:28.689Z,6.40
2022-10-06T11:34:00.397Z,6.58
2022-10-06T11:36:48.535Z,6.43
2022-10-06T11:39:33.667Z,6.18
2022-10-06T11:42:00.188Z,6.59
2022-10-06T11:44:41.365Z,6.83
2022-10-06T11:47:28.134Z,6.30
2022-10-06T11:50:01.227Z,6.26
2022-10-06T11:52:27.805Z,6.31
2022-10-06T11:55:13.056Z,6.43
2022-10-06T11:58:23.439Z,6.52
2022-10-06T12:00:52.509Z,6.57
2022-10-06T12:03:30.949Z,6.42
2022-10-06T12:05:57.814Z,5.87
2022-10-06T12:08:39.459Z,5.97
2022-10-06T12:11:41.407Z,6.20
2022-10-06T12:17:58.460Z,6.24
2022-10-06T12:20:32.754Z,6.00
2022-10-06T12:23:08.090Z,6.42
2022-10-06T12:25:46.349Z,6.20
2022-10-06T12:28:26.766Z,6.73
2022-10-06T12:31:18.467Z,6.56
2022-10-06T12:33:45.766Z,6.47
2022-10-06T12:36:22.954Z,7.05
2022-10-06T12:39:01.430Z,6.53
2022-10-06T12:41:52.884Z,6.97
2022-10-06T12:44:36.447Z,7.01
2022-10-06T12:47:12.732Z,7.87
2022-10-06T12:49:47.659Z,7.53
2022-10-06T12:52:35.398Z,7.00
2022-10-06T12:55:48.076Z,6.76
2022-10-06T12:58:28.307Z,6.98
2022-10-06T13:01:01.830Z,7.63
2022-10-06T13:03:30.053Z,7.04
2022-10-06T13:06:02.667Z,6.57
2022-10-06T13:08:32.261Z,6.55
2022-10-06T13:11:26.729Z,7.04
2022-10-06T13:14:06.791Z,6.69
2022-10-06T13:16:38.979Z,7.05
2022-10-06T13:19:05.693Z,5.07
2022-10-06T13:21:33.978Z,3.77
2022-10-06T13:24:00.742Z,3.28
2022-10-06T13:26:30.107Z,3.13
2022-10-06T13:28:59.531Z,3.25
2022-10-06T13:31:30.957Z,3.24
2022-10-06T13:34:09.674Z,3.44
2022-10-06T13:36:43.720Z,3.45
2022-10-06T13:39:18.553Z,3.56
2022-10-06T13:41:52.720Z,3.48
2022-10-06T13:44:19.353Z,3.64
2022-10-06T13:46:53.674Z,3.49
2022-10-06T13:49:20.218Z,3.53
2022-10-06T13:51:52.778Z,3.31
2022-10-06T13:54:58.725Z,3.72
2022-10-06T13:57:38.873Z,3.44
2022-10-06T14:00:14.830Z,3.31
2022-10-06T14:02:47.589Z,3.27
2022-10-06T14:05:37.535Z,3.39
2022-10-06T14:08:22.242Z,3.18
2022-10-06T14:10:59.483Z,3.38
2022-10-06T14:13:37.941Z,3.38
2022-10-06T14:16:08.638Z,3.10
2022-10-06T14:18:39.452Z,3.62
2022-10-06T14:21:17.898Z,3.47
2022-10-06T14:23:49.034Z,3.42
2022-10-06T14:26:17.836Z,3.33
2022-10-06T14:28:50.424Z,3.33
2022-10-06T14:31:18.086Z,3.25
2022-10-06T14:33:46.286Z,3.36
2022-10-06T14:36:38.109Z,3.34
2022-10-06T14:39:06.979Z,3.32
2022-10-06T14:41:34.235Z,3.62
2022-10-06T14:44:04.823Z,3.42
2022-10-06T14:46:32.350Z,3.41
2022-10-06T14:49:00.717Z,3.27
2022-10-06T14:51:32.080Z,3.20
2022-10-06T14:54:01.401Z,3.46
2022-10-06T14:56:31.667Z,3.29
2022-10-06T14:59:05.666Z,3.17
2022-10-06T15:01:34.889Z,3.38
2022-10-06T15:04:05.084Z,3.39
2022-10-06T15:06:31.766Z,3.31
2022-10-06T15:08:58.846Z,3.40
2022-10-06T15:11:28.666Z,3.45
2022-10-06T15:13:57.274Z,3.44
2022-10-06T15:16:24.650Z,3.27
2022-10-06T15:18:52.388Z,3.24
2022-10-06T15:21:19.762Z,3.23
2022-10-06T15:23:46.609Z,3.41
2022-10-06T15:26:15.649Z,3.24
2022-10-06T15:28:42.297Z,3.36
2022-10-06T15:31:09.064Z,3.32
2022-10-06T15:33:35.730Z,3.47
2022-10-06T15:36:19.610Z,3.65
2022-10-06T15:38:46.981Z,3.52
2022-10-06T15:41:13.866Z,3.68
2022-10-06T15:43:41.421Z,3.80
2022-10-06T15:46:08.108Z,3.89
2022-10-06T15:48:34.872Z,4.02
2022-10-06T15:51:01.532Z,4.53
2022-10-06T15:53:28.204Z,4.16
2022-10-06T15:55:54.805Z,4.15
2022-10-06T15:58:21.443Z,4.28
2022-10-06T16:00:48.036Z,4.47
2022-10-06T16:03:14.626Z,4.47
2022-10-06T16:05:41.306Z,4.70
2022-10-06T16:08:07.859Z,4.84
2022-10-06T16:10:34.427Z,4.72
2022-10-06T16:13:00.995Z,4.72
2022-10-06T16:15:27.648Z,4.80
2022-10-06T16:17:54.271Z,5.08
2022-10-06T16:20:20.860Z,4.88
2022-10-06T16:22:47.434Z,4.99
2022-10-06T16:25:14.045Z,4.89
2022-10-06T16:27:40.699Z,5.01
2022-10-06T16:30:08.044Z,5.04
2022-10-06T16:32:34.764Z,5.08
2022-10-06T16:35:01.473Z,4.98
2022-10-06T16:37:28.064Z,4.82
2022-10-06T16:39:54.778Z,5.30
2022-10-06T16:42:21.545Z,4.93
2022-10-06T16:44:51.081Z,5.13
2022-10-06T16:47:17.852Z,4.85
2022-10-06T16:49:44.492Z,4.92
2022-10-06T16:52:11.186Z,4.80
2022-10-06T16:54:38.062Z,5.04
2022-10-06T16:57:05.709Z,4.96
2022-10-06T16:59:35.085Z,4.72
2022-10-06T17:02:02.010Z,5.02
2022-10-06T17:04:28.904Z,4.79
2022-10-06T17:06:57.291Z,5.01
2022-10-06T17:09:29.028Z,4.76
2022-10-06T17:11:58.538Z,4.62
2022-10-06T17:14:25.696Z,4.95
2022-10-06T17:16:54.667Z,4.93
2022-10-06T17:19:23.908Z,5.25
2022-10-06T17:21:57.402Z,5.34
2022-10-06T17:24:25.305Z,5.43
2022-10-06T17:26:51.959Z,5.82
2022-10-06T17:29:21.214Z,5.99
2022-10-06T17:31:51.026Z,5.92
2022-10-06T17:34:21.447Z,5.92
2022-10-06T17:36:51.568Z,6.13
2022-10-06T17:39:21.539Z,6.08
2022-10-06T17:41:50.522Z,5.70
2022-10-06T17:44:20.386Z,6.09
2022-10-06T17:46:47.148Z,5.71
2022-10-06T17:49:16.038Z,6.04
2022-10-06T17:51:44.818Z,6.03
2022-10-06T17:54:13.204Z,5.80
2022-10-06T17:56:40.034Z,6.11
2022-10-06T17:59:11.336Z,6.22
2022-10-06T18:01:38.126Z,6.08
2022-10-06T18:04:06.540Z,5.87
2022-10-06T18:06:35.571Z,6.01
2022-10-06T18:09:02.640Z,6.29
2022-10-06T18:11:30.595Z,6.17
2022-10-06T18:13:57.665Z,6.17
2022-10-06T18:16:27.635Z,6.35
2022-10-06T18:18:55.864Z,6.38
2022-10-06T18:21:24.911Z,6.23
2022-10-06T18:23:52.676Z,6.50
2022-10-06T18:26:20.983Z,6.48
2022-10-06T18:28:49.615Z,6.22
2022-10-06T18:31:18.634Z,6.70
2022-10-06T18:36:33.599Z,6.50
2022-10-06T18:39:00.219Z,6.59
2022-10-06T18:41:28.175Z,6.60
2022-10-06T18:43:55.465Z,6.48
2022-10-06T18:46:22.286Z,6.39
2022-10-06T18:48:50.093Z,6.57
2022-10-06T18:51:16.689Z,6.67
2022-10-06T18:53:43.295Z,6.50
2022-10-06T18:56:09.888Z,6.64
2022-10-06T18:58:40.666Z,6.61
2022-10-06T19:01:08.501Z,6.85
2022-10-06T19:03:35.200Z,6.73
2022-10-06T19:06:04.882Z,6.62
2022-10-06T19:08:31.543Z,6.72
2022-10-06T19:11:06.507Z,6.57
2022-10-06T19:13:34.252Z,6.82
2022-10-06T19:16:00.854Z,7.06
2022-10-06T19:18:35.491Z,6.77
2022-10-06T19:21:07.151Z,6.98
2022-10-06T19:23:37.944Z,7.07
2022-10-06T19:26:07.565Z,7.15
2022-10-06T19:28:34.794Z,6.81
2022-10-06T19:31:05.438Z,7.18
2022-10-06T19:33:32.577Z,6.86
2022-10-06T19:35:59.579Z,7.16
2022-10-06T19:38:27.667Z,6.93
2022-10-06T19:40:54.429Z,7.24
2022-10-06T19:43:21.033Z,6.95
2022-10-06T19:45:57.335Z,7.11
2022-10-06T19:48:23.976Z,7.06
2022-10-06T19:50:50.532Z,7.22
2022-10-06T19:53:17.126Z,6.90
2022-10-06T19:55:43.710Z,6.95
2022-10-06T19:58:10.389Z,7.11
2022-10-06T20:00:36.962Z,7.10
2022-10-06T20:03:03.596Z,7.33
2022-10-06T20:05:30.219Z,6.95
2022-10-06T20:07:56.841Z,6.95
2022-10-06T20:10:23.458Z,7.32
2022-10-06T20:12:50.071Z,7.69
2022-10-06T20:15:16.673Z,7.64
2022-10-06T20:17:43.509Z,7.56
2022-10-06T20:20:10.464Z,7.54
2022-10-06T20:22:37.168Z,7.74
2022-10-06T20:25:04.090Z,7.57
2022-10-06T20:27:30.725Z,7.70
2022-10-06T20:29:57.386Z,7.47
2022-10-06T20:32:24.185Z,7.80
2022-10-06T20:34:52.158Z,7.64
2022-10-06T20:37:20.069Z,7.58
2022-10-06T20:39:46.728Z,7.74
2022-10-06T20:42:15.477Z,7.53
2022-10-06T20:44:43.096Z,7.78
2022-10-06T20:47:10.638Z,7.98
2022-10-06T20:49:37.450Z,7.91
2022-10-06T20:52:05.384Z,7.59
2022-10-06T20:54:32.389Z,7.50
2022-10-06T20:56:59.074Z,7.58
2022-10-06T20:59:25.854Z,7.91
2022-10-06T21:01:52.481Z,7.70
2022-10-06T21:04:20.032Z,7.36
2022-10-06T21:06:47.510Z,7.74
2022-10-06T21:09:16.332Z,7.79
2022-10-06T21:11:44.264Z,7.87
2022-10-06T21:14:12.246Z,7.60
2022-10-06T21:16:42.735Z,7.55
2022-10-06T21:19:12.602Z,7.50
2022-10-06T21:21:39.197Z,7.68
2022-10-06T21:24:06.490Z,7.44
2022-10-06T21:26:33.195Z,7.66
2022-10-06T21:28:59.819Z,7.62
2022-10-06T21:31:27.910Z,7.70
2022-10-06T21:33:55.366Z,7.74
2022-10-06T21:36:25.134Z,7.72
2022-10-06T21:38:55.130Z,7.38
2022-10-06T21:41:25.212Z,7.66
2022-10-06T21:44:14.051Z,7.89
2022-10-06T21:46:54.958Z,7.84
2022-10-06T21:49:23.832Z,8.02
2022-10-06T21:51:52.777Z,8.07
2022-10-06T21:54:20.951Z,7.70
2022-10-06T21:56:47.956Z,8.13
2022-10-06T21:59:14.582Z,8.11
2022-10-06T22:01:43.832Z,8.39
2022-10-06T22:04:11.566Z,8.59
2022-10-06T22:06:38.159Z,8.36
2022-10-06T22:09:07.934Z,8.20
2022-10-06T22:11:39.844Z,8.07
2022-10-06T22:14:11.777Z,7.95
2022-10-06T22:16:38.969Z,8.44
2022-10-06T22:19:10.010Z,8.02
2022-10-06T22:21:42.338Z,8.25
2022-10-06T22:24:12.333Z,7.88
2022-10-06T22:26:40.596Z,7.89
2022-10-06T22:29:09.715Z,7.71
2022-10-06T22:31:39.437Z,7.70
2022-10-06T22:34:07.045Z,7.06
2022-10-06T22:36:34.250Z,7.57
2022-10-06T22:39:01.442Z,8.24
2022-10-06T22:41:28.912Z,7.78
2022-10-06T22:43:58.026Z,7.82
2022-10-06T22:46:26.642Z,7.63
2022-10-06T22:48:53.793Z,8.46
2022-10-06T22:51:20.898Z,8.30
2022-10-06T22:53:55.171Z,8.07
2022-10-06T22:56:25.030Z,8.00
2022-10-06T22:58:51.601Z,8.11
2022-10-06T23:01:19.503Z,8.36
2022-10-06T23:03:47.211Z,8.55
2022-10-06T23:06:16.265Z,8.68
2022-10-06T23:08:43.573Z,8.55
2022-10-06T23:11:19.963Z,8.86
2022-10-06T23:13:46.759Z,8.56
2022-10-06T23:16:16.096Z,8.53
2022-10-06T23:18:45.773Z,8.67
2022-10-06T23:21:19.067Z,8.46
2022-10-06T23:23:46.709Z,8.06
2022-10-06T23:26:15.878Z,8.21
2022-10-06T23:28:42.972Z,8.43
2022-10-06T23:31:10.684Z,8.71
2022-10-06T23:33:37.361Z,8.92
2022-10-06T23:36:07.080Z,8.76
2022-10-06T23:38:35.341Z,8.54
2022-10-06T23:41:02.254Z,8.85
2022-10-06T23:43:28.807Z,9.08
2022-10-06T23:45:55.407Z,9.04
2022-10-06T23:48:22.554Z,8.83
2022-10-06T23:51:04.378Z,9.23
2022-10-06T23:53:32.125Z,9.18
2022-10-06T23:55:59.382Z,8.82
2022-10-06T23:58:27.751Z,9.00
